DeLand, FL

2:45 PM EST on January 26, 2015 (GMT -0500)
APRSWXNET DeLand FL US | Change Station
CLOSE
Current Station
Personal Weather Station
Location: DeLand, FL
Elevation: 160 ft
Nearby Weather Stations
Active Advisory: Wind Advisory

Elev 160 ft 29.06 °N, 81.36 °W | Updated 56 minutes ago

Clear
Clear
64 °F
Feels Like 64 °F
N
2
Wind Variable Wind from WSW
Gusts 14.0 mph

Today
High -- | Low -- °F
--% Chance of Precip.
Yesterday
High -- | Low -- °F
Precip. -- in
7:17 AM 5:58 PM
Waxing Crescent, 46% visible
Pressure 29.82 in
Visibility 10.0 miles
Clouds Clear
Dew Point 43 °F
Humidity 46%
Rainfall 0.27 in
Snow Depth Not available.
UV 5 out of 12
Pollen 7.00 out of 12
Air Quality Not available.
Flu Activity Not available.
METAR KDED 261935Z AUTO 27017G29KT 10SM CLR 18/01 A2982 RMK AO1

More Conditions Fewer Conditions

Pressure 29.82 in
Visibility 10.0 miles
Clouds Clear
Dew Point 43 °F
Humidity 46%
Rainfall 0.27 in
Snow Depth Not available.
UV 5 out of 12
Pollen 7.00 out of 12
Air Quality Not available.
Flu Activity Not available.
METAR KDED 261935Z AUTO 27017G29KT 10SM CLR 18/01 A2982 RMK AO1

More Conditions Fewer Conditions

Nowcast | as of 12:19 PM EST on January 26, 2015

Clearing and windy conditions will occur through the remainder of the day behind a passing cold front. Temperatures will struggle to reach the 60s roughly west of Interstate four with low to mid 60s elsewhere. Strong winds of 20 to 25 mph with occasional gusts over 30 mph will occur this afternoon. A Wind Advisory is in effect through sunset. Dangerous wind and sea conditions are occurring over the Atlantic waters and a Gale Warning is in effect beyond 20 miles from the coast a Small Craft Advisory is in place for the waters within 20 miles of the coast. Additional details...including graphics are available online at: http://www.Srh.NOAA.Gov/mlb/blog.Php

×

10-Day Weather Forecast

Almanac

Astronomy

Jan. 26, 2015 Rise Set
Actual Time
Civil Twilight
Nautical Twilight
Astronomical Twilight
Moon
Length of Visible Light
Length of Day
Tomorrow will be .
, % of the Moon is Illuminated

Today's Extremes

State Highs State Lows

Community

WunderPhotos

Upload Photos

1,790,338 photos uploaded!

WunderBlogs® & News

Nearby

Air Quality

  Air Quality AQ Index Pollutant
Not available.

Snow Depth

Station Depth Elevation

Earthquake Activity

City Distance Mag. Time & Date
Minimum magnitude displayed is 2.5.

Coastal Water Temperatures

Place Temperature

Nearby Weather Stations